Lynradar: storm image Ingen tordenbyger registrert..



Vårt webkamera mer informasjon My webcam


Kamera på Foreneset mer informasjon webcam on foreneset


Lynradar mer informasjon blitzortung!


varsel for Snø/Is  rain snow radar


Besøk vår andre værside:

Alternativ webside

iphone versjon

Nettbrett versjon

Foreneset
verstasjon



Snø/Is Fra: 22-03-2019 00:00 til: 23:59 varsel for: Snø/Is Level: Gul info button

Nære METAR rapporter

     
ENZV - Stavanger
oppdatert: 22-03-2019 12:50
Nære Byger, For det meste skyet  
Nære Byger, For det meste skyet  
   Vind: SSØ 9.3 m/s
Vind: SSØ 9.3 m/s
Temperatur: 8°C
Wind Chill: 4°C
Duggpunkt: 5°C
Fuktighet: 82%
Barometer: 1021 hPa
Skyer: For det meste skyet
Sikt: mer enn 10 km
Skydetaljer: Få Skyer 213.4 m,
For det meste skyet 365.8 m
ENZV 221150Z 15018KT 9999 VCSH FEW007 BKN012 08/05 Q1021 TEMPO 16022G32KT 4000 -RADZ BKN009
ENHD - Haugesund
oppdatert: 22-03-2019 12:50
For det meste skyet  
For det meste skyet  
   Vind: SSØ 11.3 m/s<br />Gust to 11.3 m/s
Vind: SSØ 11.3 m/s
Gust to 11.3 m/s
Temperatur: 7°C
Wind Chill: 2°C
Duggpunkt: 4°C
Fuktighet: 81%
Barometer: 1020 hPa
Skyer: For det meste skyet
Sikt: mer enn 10 km
Skydetaljer: For det meste skyet 274.3 m
ENHD 221150Z 15022G33KT 9999 BKN009 07/04 Q1020
ENBR - Bergen
oppdatert: 22-03-2019 12:50
For det meste skyet  
For det meste skyet  
   Vind: SSØ 10.3 m/s<br />Gust to 10.3 m/s
Vind: SSØ 10.3 m/s
Gust to 10.3 m/s
Temperatur: 7°C
Wind Chill: 2°C
Duggpunkt: 4°C
Fuktighet: 81%
Barometer: 1017 hPa
Skyer: For det meste skyet
Sikt: mer enn 10 km
Skydetaljer: Delvis Skyet 426.7 m,
For det meste skyet 609.6 m
ENBR 221150Z 15020G31KT 9999 SCT014 BKN020 07/04 Q1017 TEMPO 4000 -RA BR BKN007 RMK WIND 1200FT 15037G49KT
ENCN - Kristiansand
oppdatert: 22-03-2019 12:50
Nearby Fog, For det meste skyet  
Nearby Fog, For det meste skyet  
   Vind: Sør 4.6 m/s
Vind: Sør 4.6 m/s
Temperatur: 6°C
Wind Chill: 3°C
Duggpunkt: 5°C
Fuktighet: 93%
Barometer: 1027 hPa
Skyer: For det meste skyet
Sikt: 9 km
Skydetaljer: Delvis Skyet 274.3 m,
For det meste skyet 396.2 m
ENCN 221150Z 19009KT 9000 VCFG SCT009 BKN013 06/05 Q1027
ENGM - Oslo
oppdatert: 22-03-2019 12:50
Klart  
Klart  
   Vind: SSØ 5.7 m/s
Vind: SSØ 5.7 m/s
Temperatur: 5°C
Wind Chill: 1°C
Duggpunkt: -2°C
Fuktighet: 61%
Barometer: 1026 hPa
Sikt: mer enn 10 km
Skydetaljer: Klart
ENGM 221150Z 16011KT CAVOK 05/M02 Q1026 NOSIG
ENVA - Trondheim
oppdatert: 22-03-2019 12:50
For det meste skyet  
For det meste skyet  
   Vind: Sør 11.3 m/s<br />Gust to 11.3 m/s
Vind: Sør 11.3 m/s
Gust to 11.3 m/s
Temperatur: 7°C
Wind Chill: 2°C
Duggpunkt: -6°C
Fuktighet: 39%
Barometer: 1014 hPa
Skyer: For det meste skyet
Sikt: mer enn 10 km
Skydetaljer: Få Skyer 1676.4 m,
For det meste skyet 1950.7 m
ENVA 221150Z 17022G33KT 9999 FEW055 BKN064 07/M06 Q1014 NOSIG RMK WIND 670FT 18028G41KT
    

Script utviklet av  Saratoga-weather.org Tilrettelagt for malen av  Weerstation Leuven

Du finner vår vær info også på:

UK Metoffice

European Weather Network

WeatherCloud

Weather Underground

Utstyr vi bruker:

Værstsjon
Davis VP2

Værprogram
Weather Display

Davis VP2

Weather Display